sensor_id;sensor_type;location;lat;lon;timestamp;pressure;altitude;pressure_sealevel;temperature;humidity
29903;BME280;30288;50.514;9.678;2023-02-19T00:01:30;98912.31;;;8.25;100.00
29903;BME280;30288;50.514;9.678;2023-02-19T00:03:37;98915.63;;;8.27;100.00
29903;BME280;30288;50.514;9.678;2023-02-19T00:05:42;98918.16;;;8.26;100.00
29903;BME280;30288;50.514;9.678;2023-02-19T00:07:47;98912.25;;;8.28;100.00
29903;BME280;30288;50.514;9.678;2023-02-19T00:09:52;98914.00;;;8.26;100.00
29903;BME280;30288;50.514;9.678;2023-02-19T00:11:57;98902.28;;;8.25;100.00
29903;BME280;30288;50.514;9.678;2023-02-19T00:14:05;98905.59;;;8.27;100.00
29903;BME280;30288;50.514;9.678;2023-02-19T00:16:14;98901.47;;;8.25;100.00
29903;BME280;30288;50.514;9.678;2023-02-19T00:18:19;98897.28;;;8.25;100.00
29903;BME280;30288;50.514;9.678;2023-02-19T00:20:24;98899.72;;;8.27;100.00
29903;BME280;30288;50.514;9.678;2023-02-19T00:22:32;98888.78;;;8.34;100.00
29903;BME280;30288;50.514;9.678;2023-02-19T00:24:37;98886.28;;;8.32;100.00
29903;BME280;30288;50.514;9.678;2023-02-19T00:26:44;98877.91;;;8.33;100.00
29903;BME280;30288;50.514;9.678;2023-02-19T00:28:53;98885.50;;;8.30;100.00
29903;BME280;30288;50.514;9.678;2023-02-19T00:31:07;98882.97;;;8.32;100.00
29903;BME280;30288;50.514;9.678;2023-02-19T00:33:15;98878.81;;;8.31;100.00
29903;BME280;30288;50.514;9.678;2023-02-19T00:35:20;98865.44;;;8.30;100.00
29903;BME280;30288;50.514;9.678;2023-02-19T00:37:25;98854.50;;;8.33;100.00
29903;BME280;30288;50.514;9.678;2023-02-19T00:39:31;98850.38;;;8.29;100.00
29903;BME280;30288;50.514;9.678;2023-02-19T00:41:36;98847.03;;;8.28;100.00
29903;BME280;30288;50.514;9.678;2023-02-19T00:43:41;98851.22;;;8.28;100.00
29903;BME280;30288;50.514;9.678;2023-02-19T00:45:46;98852.88;;;8.27;100.00
29903;BME280;30288;50.514;9.678;2023-02-19T00:47:54;98854.56;;;8.27;100.00
29903;BME280;30288;50.514;9.678;2023-02-19T00:49:59;98862.97;;;8.26;100.00
29903;BME280;30288;50.514;9.678;2023-02-19T00:52:04;98865.47;;;8.26;100.00
29903;BME280;30288;50.514;9.678;2023-02-19T00:54:11;98863.78;;;8.29;100.00
29903;BME280;30288;50.514;9.678;2023-02-19T00:56:18;98862.84;;;8.35;100.00
29903;BME280;30288;50.514;9.678;2023-02-19T00:58:23;98861.13;;;8.37;100.00
29903;BME280;30288;50.514;9.678;2023-02-19T01:00:28;98852.00;;;8.33;100.00
29903;BME280;30288;50.514;9.678;2023-02-19T01:02:34;98844.47;;;8.33;100.00
29903;BME280;30288;50.514;9.678;2023-02-19T01:04:42;98841.13;;;8.34;100.00
29903;BME280;30288;50.514;9.678;2023-02-19T01:06:48;98851.16;;;8.34;100.00
29903;BME280;30288;50.514;9.678;2023-02-19T01:08:53;98849.50;;;8.33;100.00
29903;BME280;30288;50.514;9.678;2023-02-19T01:11:00;98838.66;;;8.31;100.00
29903;BME280;30288;50.514;9.678;2023-02-19T01:13:05;98839.44;;;8.33;100.00
29903;BME280;30288;50.514;9.678;2023-02-19T01:15:11;98839.50;;;8.30;100.00
29903;BME280;30288;50.514;9.678;2023-02-19T01:17:16;98828.63;;;8.31;100.00
29903;BME280;30288;50.514;9.678;2023-02-19T01:19:21;98827.78;;;8.29;100.00
29903;BME280;30288;50.514;9.678;2023-02-19T01:21:30;98828.63;;;8.31;100.00
29903;BME280;30288;50.514;9.678;2023-02-19T01:23:35;98826.13;;;8.31;100.00
29903;BME280;30288;50.514;9.678;2023-02-19T01:25:41;98826.97;;;8.31;100.00
29903;BME280;30288;50.514;9.678;2023-02-19T01:27:46;98827.72;;;8.35;100.00
29903;BME280;30288;50.514;9.678;2023-02-19T01:29:52;98809.25;;;8.39;100.00
29903;BME280;30288;50.514;9.678;2023-02-19T01:31:57;98807.66;;;8.35;100.00
29903;BME280;30288;50.514;9.678;2023-02-19T01:34:03;98802.66;;;8.32;100.00
29903;BME280;30288;50.514;9.678;2023-02-19T01:36:09;98807.72;;;8.29;100.00
29903;BME280;30288;50.514;9.678;2023-02-19T01:38:16;98796.84;;;8.28;100.00
29903;BME280;30288;50.514;9.678;2023-02-19T01:40:21;98812.72;;;8.29;100.00
29903;BME280;30288;50.514;9.678;2023-02-19T01:42:27;98809.47;;;8.24;100.00
29903;BME280;30288;50.514;9.678;2023-02-19T01:45:18;98807.78;;;8.24;100.00
29903;BME280;30288;50.514;9.678;2023-02-19T01:47:26;98805.22;;;8.27;100.00
29903;BME280;30288;50.514;9.678;2023-02-19T01:49:34;98801.09;;;8.25;100.00
29903;BME280;30288;50.514;9.678;2023-02-19T01:51:46;98811.09;;;8.29;100.00
29903;BME280;30288;50.514;9.678;2023-02-19T01:53:58;98811.91;;;8.27;100.00
29903;BME280;30288;50.514;9.678;2023-02-19T01:56:06;98809.41;;;8.30;100.00
29903;BME280;30288;50.514;9.678;2023-02-19T01:58:13;98814.38;;;8.33;100.00
29903;BME280;30288;50.514;9.678;2023-02-19T02:00:19;98816.03;;;8.34;100.00
29903;BME280;30288;50.514;9.678;2023-02-19T02:02:27;98816.09;;;8.31;100.00
29903;BME280;30288;50.514;9.678;2023-02-19T02:04:33;98803.41;;;8.37;100.00
29903;BME280;30288;50.514;9.678;2023-02-19T02:06:43;98800.88;;;8.40;100.00
29903;BME280;30288;50.514;9.678;2023-02-19T02:08:57;98789.91;;;8.46;100.00
29903;BME280;30288;50.514;9.678;2023-02-19T02:11:15;98787.41;;;8.44;100.00
29903;BME280;30288;50.514;9.678;2023-02-19T02:13:18;98792.41;;;8.44;100.00
29903;BME280;30288;50.514;9.678;2023-02-19T02:15:28;98778.31;;;8.39;100.00
29903;BME280;30288;50.514;9.678;2023-02-19T02:17:46;98774.22;;;8.33;100.00
29903;BME280;30288;50.514;9.678;2023-02-19T02:20:25;98767.59;;;8.30;100.00
29903;BME280;30288;50.514;9.678;2023-02-19T02:22:39;98767.59;;;8.27;100.00
29903;BME280;30288;50.514;9.678;2023-02-19T02:27:42;98769.25;;;8.27;100.00
29903;BME280;30288;50.514;9.678;2023-02-19T02:32:42;98771.50;;;8.44;100.00
29903;BME280;30288;50.514;9.678;2023-02-19T02:35:00;98760.56;;;8.46;100.00
29903;BME280;30288;50.514;9.678;2023-02-19T02:37:08;98756.28;;;8.51;100.00
29903;BME280;30288;50.514;9.678;2023-02-19T02:39:18;98750.50;;;8.49;100.00
29903;BME280;30288;50.514;9.678;2023-02-19T02:41:25;98760.44;;;8.55;100.00
29903;BME280;30288;50.514;9.678;2023-02-19T02:43:31;98749.41;;;8.62;100.00
29903;BME280;30288;50.514;9.678;2023-02-19T02:45:40;98745.19;;;8.64;100.00
29903;BME280;30288;50.514;9.678;2023-02-19T02:48:10;98734.44;;;8.58;100.00
29903;BME280;30288;50.514;9.678;2023-02-19T02:50:22;98735.31;;;8.55;100.00
29903;BME280;30288;50.514;9.678;2023-02-19T02:52:28;98744.50;;;8.56;100.00
29903;BME280;30288;50.514;9.678;2023-02-19T02:54:46;98738.72;;;8.51;100.00
29903;BME280;30288;50.514;9.678;2023-02-19T02:57:06;98717.88;;;8.48;100.00
29903;BME280;30288;50.514;9.678;2023-02-19T02:59:25;98727.06;;;8.50;100.00
29903;BME280;30288;50.514;9.678;2023-02-19T03:01:37;98723.66;;;8.51;100.00
29903;BME280;30288;50.514;9.678;2023-02-19T03:04:03;98741.34;;;8.47;100.00
29903;BME280;30288;50.514;9.678;2023-02-19T03:06:11;98743.00;;;8.48;100.00
29903;BME280;30288;50.514;9.678;2023-02-19T03:08:21;98752.97;;;8.51;100.00
29903;BME280;30288;50.514;9.678;2023-02-19T03:10:35;98748.72;;;8.54;100.00
29903;BME280;30288;50.514;9.678;2023-02-19T03:12:45;98745.28;;;8.58;100.00
29903;BME280;30288;50.514;9.678;2023-02-19T03:15:08;98741.97;;;8.56;100.00
29903;BME280;30288;50.514;9.678;2023-02-19T03:17:35;98741.78;;;8.65;100.00
29903;BME280;30288;50.514;9.678;2023-02-19T03:19:57;98750.19;;;8.64;100.00
29903;BME280;30288;50.514;9.678;2023-02-19T03:22:13;98743.34;;;8.72;100.00
29903;BME280;30288;50.514;9.678;2023-02-19T03:24:26;98740.91;;;8.69;100.00
29903;BME280;30288;50.514;9.678;2023-02-19T03:26:45;98740.75;;;8.75;100.00
29903;BME280;30288;50.514;9.678;2023-02-19T03:28:57;98743.22;;;8.78;100.00
29903;BME280;30288;50.514;9.678;2023-02-19T03:31:21;98734.06;;;8.76;100.00
29903;BME280;30288;50.514;9.678;2023-02-19T03:33:30;98734.13;;;8.73;100.00
29903;BME280;30288;50.514;9.678;2023-02-19T03:35:40;98736.59;;;8.74;100.00
29903;BME280;30288;50.514;9.678;2023-02-19T03:37:52;98735.81;;;8.71;100.00
29903;BME280;30288;50.514;9.678;2023-02-19T03:40:01;98745.00;;;8.73;100.00
29903;BME280;30288;50.514;9.678;2023-02-19T03:42:16;98741.56;;;8.77;100.00
29903;BME280;30288;50.514;9.678;2023-02-19T03:44:31;98744.91;;;8.76;100.00
29903;BME280;30288;50.514;9.678;2023-02-19T03:46:45;98739.09;;;8.74;100.00
29903;BME280;30288;50.514;9.678;2023-02-19T03:49:01;98743.34;;;8.72;100.00
29903;BME280;30288;50.514;9.678;2023-02-19T03:51:26;98753.44;;;8.69;100.00
29903;BME280;30288;50.514;9.678;2023-02-19T03:53:46;98757.56;;;8.72;100.00
29903;BME280;30288;50.514;9.678;2023-02-19T03:56:05;98754.22;;;8.73;100.00
29903;BME280;30288;50.514;9.678;2023-02-19T03:58:17;98745.75;;;8.77;100.00
29903;BME280;30288;50.514;9.678;2023-02-19T04:00:31;98759.03;;;8.82;100.00
29903;BME280;30288;50.514;9.678;2023-02-19T04:02:44;98762.28;;;8.87;100.00
29903;BME280;30288;50.514;9.678;2023-02-19T04:04:59;98748.16;;;8.82;100.00
29903;BME280;30288;50.514;9.678;2023-02-19T04:07:07;98749.81;;;8.83;100.00
29903;BME280;30288;50.514;9.678;2023-02-19T04:09:14;98741.50;;;8.81;100.00
29903;BME280;30288;50.514;9.678;2023-02-19T04:11:25;98736.53;;;8.77;100.00
29903;BME280;30288;50.514;9.678;2023-02-19T04:13:40;98743.22;;;8.78;100.00
29903;BME280;30288;50.514;9.678;2023-02-19T04:15:49;98743.31;;;8.74;100.00
29903;BME280;30288;50.514;9.678;2023-02-19T04:17:59;98750.19;;;8.64;100.00
29903;BME280;30288;50.514;9.678;2023-02-19T04:20:09;98764.28;;;8.71;100.00
29903;BME280;30288;50.514;9.678;2023-02-19T04:22:16;98761.84;;;8.68;100.00
29903;BME280;30288;50.514;9.678;2023-02-19T04:24:25;98765.88;;;8.75;100.00
29903;BME280;30288;50.514;9.678;2023-02-19T04:26:32;98761.47;;;8.87;100.00
29903;BME280;30288;50.514;9.678;2023-02-19T04:28:39;98756.44;;;8.87;100.00
29903;BME280;30288;50.514;9.678;2023-02-19T04:30:45;98759.72;;;8.89;100.00
29903;BME280;30288;50.514;9.678;2023-02-19T04:32:50;98768.13;;;8.88;100.00
29903;BME280;30288;50.514;9.678;2023-02-19T04:34:55;98761.47;;;8.87;100.00
29903;BME280;30288;50.514;9.678;2023-02-19T04:37:03;98768.13;;;8.88;100.00
29903;BME280;30288;50.514;9.678;2023-02-19T04:39:08;98777.31;;;8.89;100.00
29903;BME280;30288;50.514;9.678;2023-02-19T04:41:13;98767.34;;;8.86;100.00
29903;BME280;30288;50.514;9.678;2023-02-19T04:43:19;98768.13;;;8.88;100.00
29903;BME280;30288;50.514;9.678;2023-02-19T04:45:24;98768.13;;;8.88;100.00
29903;BME280;30288;50.514;9.678;2023-02-19T04:47:31;98760.63;;;8.86;100.00
29903;BME280;30288;50.514;9.678;2023-02-19T04:49:36;98761.38;;;8.90;100.00
29903;BME280;30288;50.514;9.678;2023-02-19T04:51:41;98774.78;;;8.89;100.00
29903;BME280;30288;50.514;9.678;2023-02-19T04:53:49;98764.75;;;8.89;100.00
29903;BME280;30288;50.514;9.678;2023-02-19T04:55:54;98775.72;;;8.85;100.00
29903;BME280;30288;50.514;9.678;2023-02-19T04:57:59;98766.47;;;8.88;100.00
29903;BME280;30288;50.514;9.678;2023-02-19T05:00:08;98764.81;;;8.86;100.00
29903;BME280;30288;50.514;9.678;2023-02-19T05:02:13;98761.53;;;8.84;100.00
29903;BME280;30288;50.514;9.678;2023-02-19T05:04:18;98769.84;;;8.86;100.00
29903;BME280;30288;50.514;9.678;2023-02-19T05:06:25;98770.84;;;8.78;100.00
29903;BME280;30288;50.514;9.678;2023-02-19T05:08:30;98770.78;;;8.82;100.00
29903;BME280;30288;50.514;9.678;2023-02-19T05:10:38;98784.09;;;8.85;100.00
29903;BME280;30288;50.514;9.678;2023-02-19T05:12:44;98778.22;;;8.85;100.00
29903;BME280;30288;50.514;9.678;2023-02-19T05:14:49;98786.50;;;8.90;100.00
29903;BME280;30288;50.514;9.678;2023-02-19T05:16:54;98784.13;;;8.84;100.00
29903;BME280;30288;50.514;9.678;2023-02-19T05:18:59;98786.66;;;8.84;100.00
29903;BME280;30288;50.514;9.678;2023-02-19T05:21:06;98790.00;;;8.83;100.00
29903;BME280;30288;50.514;9.678;2023-02-19T05:23:11;98796.84;;;8.74;100.00
29903;BME280;30288;50.514;9.678;2023-02-19T05:25:16;98794.41;;;8.71;100.00
29903;BME280;30288;50.514;9.678;2023-02-19T05:27:24;98798.75;;;8.63;100.00
29903;BME280;30288;50.514;9.678;2023-02-19T05:29:30;98807.06;;;8.65;100.00
29903;BME280;30288;50.514;9.678;2023-02-19T05:31:35;98798.75;;;8.63;100.00
29903;BME280;30288;50.514;9.678;2023-02-19T05:33:43;98807.13;;;8.62;100.00
29903;BME280;30288;50.514;9.678;2023-02-19T05:35:54;98812.22;;;8.59;100.00
29903;BME280;30288;50.514;9.678;2023-02-19T05:37:59;98813.91;;;8.59;100.00
29903;BME280;30288;50.514;9.678;2023-02-19T05:40:05;98819.84;;;8.53;100.00
29903;BME280;30288;50.514;9.678;2023-02-19T05:42:12;98830.75;;;8.52;100.00
29903;BME280;30288;50.514;9.678;2023-02-19T05:44:20;98827.47;;;8.50;100.00
29903;BME280;30288;50.514;9.678;2023-02-19T05:46:28;98822.47;;;8.47;100.00
29903;BME280;30288;50.514;9.678;2023-02-19T05:48:34;98829.16;;;8.48;100.00
29903;BME280;30288;50.514;9.678;2023-02-19T05:50:39;98835.94;;;8.43;100.00
29903;BME280;30288;50.514;9.678;2023-02-19T05:52:47;98833.44;;;8.42;100.00
29903;BME280;30288;50.514;9.678;2023-02-19T05:54:52;98830.97;;;8.40;100.00
29903;BME280;30288;50.514;9.678;2023-02-19T05:56:57;98835.94;;;8.43;100.00
29903;BME280;30288;50.514;9.678;2023-02-19T05:59:05;98840.88;;;8.46;100.00
29903;BME280;30288;50.514;9.678;2023-02-19T06:01:17;98840.94;;;8.43;100.00
29903;BME280;30288;50.514;9.678;2023-02-19T06:03:23;98836.94;;;8.34;100.00
29903;BME280;30288;50.514;9.678;2023-02-19T06:05:29;98836.16;;;8.31;100.00
29903;BME280;30288;50.514;9.678;2023-02-19T06:07:34;98843.69;;;8.31;100.00
29903;BME280;30288;50.514;9.678;2023-02-19T06:09:40;98838.63;;;8.32;100.00
29903;BME280;30288;50.514;9.678;2023-02-19T06:11:45;98844.53;;;8.30;100.00
29903;BME280;30288;50.514;9.678;2023-02-19T06:13:51;98851.22;;;8.28;100.00
29903;BME280;30288;50.514;9.678;2023-02-19T06:15:56;98839.56;;;8.25;100.00
29903;BME280;30288;50.514;9.678;2023-02-19T06:18:04;98846.19;;;8.28;100.00
29903;BME280;30288;50.514;9.678;2023-02-19T06:20:10;98856.28;;;8.25;100.00
29903;BME280;30288;50.514;9.678;2023-02-19T06:22:15;98857.09;;;8.27;100.00
29903;BME280;30288;50.514;9.678;2023-02-19T06:24:20;98852.84;;;8.32;100.00
29903;BME280;30288;50.514;9.678;2023-02-19T06:26:25;98858.66;;;8.36;100.00
29903;BME280;30288;50.514;9.678;2023-02-19T06:28:31;98857.00;;;8.33;100.00
29903;BME280;30288;50.514;9.678;2023-02-19T06:30:36;98869.53;;;8.36;100.00
29903;BME280;30288;50.514;9.678;2023-02-19T06:32:41;98861.13;;;8.37;100.00
29903;BME280;30288;50.514;9.678;2023-02-19T06:34:49;98861.13;;;8.37;100.00
29903;BME280;30288;50.514;9.678;2023-02-19T06:36:54;98865.28;;;8.40;100.00
29903;BME280;30288;50.514;9.678;2023-02-19T06:39:00;98869.41;;;8.42;100.00
29903;BME280;30288;50.514;9.678;2023-02-19T06:41:06;98875.25;;;8.43;100.00
29903;BME280;30288;50.514;9.678;2023-02-19T06:43:12;98882.88;;;8.38;100.00
29903;BME280;30288;50.514;9.678;2023-02-19T06:45:17;98879.59;;;8.33;100.00
29903;BME280;30288;50.514;9.678;2023-02-19T06:47:22;98891.31;;;8.34;100.00
29903;BME280;30288;50.514;9.678;2023-02-19T06:49:28;98888.78;;;8.36;100.00
29903;BME280;30288;50.514;9.678;2023-02-19T06:51:35;98895.50;;;8.32;100.00
29903;BME280;30288;50.514;9.678;2023-02-19T06:53:41;98896.38;;;8.31;100.00
29903;BME280;30288;50.514;9.678;2023-02-19T06:55:55;98907.19;;;8.33;100.00
29903;BME280;30288;50.514;9.678;2023-02-19T06:58:00;98907.97;;;8.38;100.00
29903;BME280;30288;50.514;9.678;2023-02-19T07:00:08;98913.72;;;8.45;100.00
29903;BME280;30288;50.514;9.678;2023-02-19T07:02:13;98916.81;;;8.59;100.00
29903;BME280;30288;50.514;9.678;2023-02-19T07:04:19;98919.34;;;8.57;100.00
29903;BME280;30288;50.514;9.678;2023-02-19T07:06:25;98924.31;;;8.60;100.00
29903;BME280;30288;50.514;9.678;2023-02-19T07:08:33;98921.84;;;8.57;100.00
29903;BME280;30288;50.514;9.678;2023-02-19T07:10:38;98925.25;;;8.55;100.00
29903;BME280;30288;50.514;9.678;2023-02-19T07:12:43;98927.72;;;8.56;100.00
29903;BME280;30288;50.514;9.678;2023-02-19T07:14:49;98926.88;;;8.57;100.00
29903;BME280;30288;50.514;9.678;2023-02-19T07:16:54;98920.19;;;8.56;100.00
29903;BME280;30288;50.514;9.678;2023-02-19T07:18:59;98927.63;;;8.62;100.00
29903;BME280;30288;50.514;9.678;2023-02-19T07:21:07;98939.25;;;8.69;100.00
29903;BME280;30288;50.514;9.678;2023-02-19T07:23:13;98937.56;;;8.68;100.00
29903;BME280;30288;50.514;9.678;2023-02-19T07:25:21;98940.88;;;8.70;100.00
29903;BME280;30288;50.514;9.678;2023-02-19T07:27:26;98937.56;;;8.68;100.00
29903;BME280;30288;50.514;9.678;2023-02-19T07:29:32;98935.84;;;8.70;100.00
29903;BME280;30288;50.514;9.678;2023-02-19T07:31:37;98936.75;;;8.68;100.00
29903;BME280;30288;50.514;9.678;2023-02-19T07:33:42;98937.50;;;8.71;100.00
29903;BME280;30288;50.514;9.678;2023-02-19T07:35:48;98944.13;;;8.75;100.00
29903;BME280;30288;50.514;9.678;2023-02-19T07:37:54;98954.09;;;8.82;100.00
29903;BME280;30288;50.514;9.678;2023-02-19T07:39:59;98947.38;;;8.84;100.00
29903;BME280;30288;50.514;9.678;2023-02-19T07:42:07;98953.09;;;8.89;100.00
29903;BME280;30288;50.514;9.678;2023-02-19T07:44:13;98965.63;;;8.92;100.00
29903;BME280;30288;50.514;9.678;2023-02-19T07:46:18;98959.69;;;8.96;100.00
29903;BME280;30288;50.514;9.678;2023-02-19T07:48:24;98962.19;;;8.96;100.00
29903;BME280;30288;50.514;9.678;2023-02-19T07:50:29;98970.50;;;9.01;100.00
29903;BME280;30288;50.514;9.678;2023-02-19T07:52:34;98968.06;;;8.95;100.00
29903;BME280;30288;50.514;9.678;2023-02-19T07:54:39;98975.59;;;8.98;100.00
29903;BME280;30288;50.514;9.678;2023-02-19T07:56:44;98979.72;;;8.99;100.00
29903;BME280;30288;50.514;9.678;2023-02-19T07:58:51;98993.84;;;9.06;100.00
29903;BME280;30288;50.514;9.678;2023-02-19T08:01:04;98990.50;;;9.07;100.00
29903;BME280;30288;50.514;9.678;2023-02-19T08:03:10;98995.38;;;9.14;100.00
29903;BME280;30288;50.514;9.678;2023-02-19T08:05:13;98998.81;;;9.09;100.00
29903;BME280;30288;50.514;9.678;2023-02-19T08:07:18;98994.59;;;9.11;100.00
29903;BME280;30288;50.514;9.678;2023-02-19T08:09:23;98996.19;;;9.15;100.00
29903;BME280;30288;50.514;9.678;2023-02-19T08:11:27;98997.00;;;9.17;100.00
29903;BME280;30288;50.514;9.678;2023-02-19T08:13:47;99003.66;;;9.18;100.00
29903;BME280;30288;50.514;9.678;2023-02-19T08:16:10;98999.53;;;9.17;100.00
29903;BME280;30288;50.514;9.678;2023-02-19T08:18:26;99000.38;;;9.16;100.00
29903;BME280;30288;50.514;9.678;2023-02-19T08:20:33;99003.56;;;9.24;100.00
29903;BME280;30288;50.514;9.678;2023-02-19T08:22:39;99013.44;;;9.33;100.00
29903;BME280;30288;50.514;9.678;2023-02-19T08:24:44;99018.38;;;9.38;100.00
29903;BME280;30288;50.514;9.678;2023-02-19T08:26:49;99027.41;;;9.48;100.00
29903;BME280;30288;50.514;9.678;2023-02-19T08:28:54;99032.44;;;9.49;100.00
29903;BME280;30288;50.514;9.678;2023-02-19T08:31:05;99041.66;;;9.47;100.00
29903;BME280;30288;50.514;9.678;2023-02-19T08:33:13;99042.41;;;9.52;100.00
29903;BME280;30288;50.514;9.678;2023-02-19T08:35:19;99056.84;;;9.41;100.00
29903;BME280;30288;50.514;9.678;2023-02-19T08:37:25;99056.09;;;9.38;100.00
29903;BME280;30288;50.514;9.678;2023-02-19T08:39:31;99065.44;;;9.31;100.00
29903;BME280;30288;50.514;9.678;2023-02-19T08:41:36;99067.22;;;9.25;100.00
29903;BME280;30288;50.514;9.678;2023-02-19T08:43:42;99072.84;;;9.37;100.00
29903;BME280;30288;50.514;9.678;2023-02-19T08:45:47;99077.13;;;9.32;100.00
29903;BME280;30288;50.514;9.678;2023-02-19T08:47:55;99070.41;;;9.34;100.00
29903;BME280;30288;50.514;9.678;2023-02-19T08:50:00;99068.72;;;9.35;100.00
29903;BME280;30288;50.514;9.678;2023-02-19T08:52:06;99074.50;;;9.40;100.00
29903;BME280;30288;50.514;9.678;2023-02-19T08:54:11;99061.00;;;9.45;100.00
29903;BME280;30288;50.514;9.678;2023-02-19T08:56:16;99078.47;;;9.51;100.00
29903;BME280;30288;50.514;9.678;2023-02-19T08:58:22;99075.94;;;9.53;100.00
29903;BME280;30288;50.514;9.678;2023-02-19T09:00:27;99077.44;;;9.63;100.00
29903;BME280;30288;50.514;9.678;2023-02-19T09:02:32;99073.22;;;9.63;100.00
29903;BME280;30288;50.514;9.678;2023-02-19T09:04:40;99074.66;;;9.77;100.00
29903;BME280;30288;50.514;9.678;2023-02-19T09:06:46;99072.19;;;9.74;100.00
29903;BME280;30288;50.514;9.678;2023-02-19T09:08:51;99069.53;;;9.80;100.00
29903;BME280;30288;50.514;9.678;2023-02-19T09:10:59;99068.41;;;9.94;100.00
29903;BME280;30288;50.514;9.678;2023-02-19T09:13:05;99075.94;;;9.96;100.00
29903;BME280;30288;50.514;9.678;2023-02-19T09:15:11;99070.72;;;10.05;100.00
29903;BME280;30288;50.514;9.678;2023-02-19T09:17:16;99079.09;;;10.07;100.00
29903;BME280;30288;50.514;9.678;2023-02-19T09:19:22;99073.16;;;10.08;100.00
29903;BME280;30288;50.514;9.678;2023-02-19T09:21:30;99069.81;;;10.07;100.00
29903;BME280;30288;50.514;9.678;2023-02-19T09:23:36;99079.88;;;10.07;100.00
29903;BME280;30288;50.514;9.678;2023-02-19T09:25:41;99079.13;;;10.04;100.00
29903;BME280;30288;50.514;9.678;2023-02-19T09:27:46;99091.13;;;9.93;100.00
29903;BME280;30288;50.514;9.678;2023-02-19T09:29:51;99089.50;;;9.89;100.00
29903;BME280;30288;50.514;9.678;2023-02-19T09:31:57;99092.06;;;9.87;100.00
29903;BME280;30288;50.514;9.678;2023-02-19T09:34:04;99092.00;;;9.89;100.00
29903;BME280;30288;50.514;9.678;2023-02-19T09:36:10;99095.34;;;9.89;100.00
29903;BME280;30288;50.514;9.678;2023-02-19T09:38:18;99101.97;;;9.93;100.00
29903;BME280;30288;50.514;9.678;2023-02-19T09:40:23;99090.28;;;9.92;100.00
29903;BME280;30288;50.514;9.678;2023-02-19T09:42:29;99083.50;;;9.96;100.00
29903;BME280;30288;50.514;9.678;2023-02-19T09:44:38;99092.63;;;10.00;100.00
29903;BME280;30288;50.514;9.678;2023-02-19T09:46:46;99087.41;;;10.09;100.00
29903;BME280;30288;50.514;9.678;2023-02-19T09:48:54;99079.72;;;10.18;100.00
29903;BME280;30288;50.514;9.678;2023-02-19T09:51:03;99094.75;;;10.21;100.00
29903;BME280;30288;50.514;9.678;2023-02-19T09:53:17;99093.75;;;10.28;100.00
29903;BME280;30288;50.514;9.678;2023-02-19T09:55:30;99094.47;;;10.35;100.00
29903;BME280;30288;50.514;9.678;2023-02-19T09:57:39;99096.88;;;10.39;100.00
29903;BME280;30288;50.514;9.678;2023-02-19T09:59:49;99095.97;;;10.42;100.00
29903;BME280;30288;50.514;9.678;2023-02-19T10:02:00;99098.47;;;10.43;100.00
29903;BME280;30288;50.514;9.678;2023-02-19T10:04:09;99098.78;;;10.28;100.00
29903;BME280;30288;50.514;9.678;2023-02-19T10:06:19;99103.59;;;10.40;100.00
29903;BME280;30288;50.514;9.678;2023-02-19T10:08:31;99099.94;;;10.53;100.00
29903;BME280;30288;50.514;9.678;2023-02-19T10:10:38;99109.69;;;10.69;100.00
29903;BME280;30288;50.514;9.678;2023-02-19T10:12:47;99105.28;;;10.77;100.00
29903;BME280;30288;50.514;9.678;2023-02-19T10:14:58;99108.13;;;10.98;100.00
29903;BME280;30288;50.514;9.678;2023-02-19T10:17:06;99111.34;;;11.05;100.00
29903;BME280;30288;50.514;9.678;2023-02-19T10:19:15;99122.78;;;11.18;100.00
29903;BME280;30288;50.514;9.678;2023-02-19T10:21:23;99116.78;;;11.22;100.00
29903;BME280;30288;50.514;9.678;2023-02-19T10:23:33;99119.81;;;11.36;100.00
29903;BME280;30288;50.514;9.678;2023-02-19T10:25:43;99129.28;;;11.27;100.00
29903;BME280;30288;50.514;9.678;2023-02-19T10:27:48;99131.47;;;11.07;100.00
29903;BME280;30288;50.514;9.678;2023-02-19T10:29:54;99127.31;;;11.04;100.00
29903;BME280;30288;50.514;9.678;2023-02-19T10:32:16;99120.41;;;11.12;100.00
29903;BME280;30288;50.514;9.678;2023-02-19T10:34:24;99127.78;;;11.20;100.00
29903;BME280;30288;50.514;9.678;2023-02-19T10:36:32;99136.19;;;11.20;100.00
29903;BME280;30288;50.514;9.678;2023-02-19T10:38:46;99132.00;;;11.19;100.00
29903;BME280;30288;50.514;9.678;2023-02-19T10:40:58;99138.25;;;11.03;100.00
29903;BME280;30288;50.514;9.678;2023-02-19T10:43:04;99144.38;;;10.93;100.00
29903;BME280;30288;50.514;9.678;2023-02-19T10:45:17;99157.78;;;10.95;100.00
29903;BME280;30288;50.514;9.678;2023-02-19T10:47:25;99157.06;;;10.88;100.00
29903;BME280;30288;50.514;9.678;2023-02-19T10:49:36;99166.78;;;11.07;100.00
29903;BME280;30288;50.514;9.678;2023-02-19T10:51:44;99166.47;;;11.19;100.00
29903;BME280;30288;50.514;9.678;2023-02-19T10:54:05;99165.59;;;11.21;100.00
29903;BME280;30288;50.514;9.678;2023-02-19T10:56:14;99173.94;;;11.23;100.00
29903;BME280;30288;50.514;9.678;2023-02-19T10:58:23;99181.72;;;11.13;100.00
29903;BME280;30288;50.514;9.678;2023-02-19T11:00:30;99160.69;;;11.15;100.00
29903;BME280;30288;50.514;9.678;2023-02-19T11:02:35;99170.69;;;11.18;100.00
29903;BME280;30288;50.514;9.678;2023-02-19T11:04:41;99184.16;;;11.17;100.00
29903;BME280;30288;50.514;9.678;2023-02-19T11:06:46;99197.56;;;11.19;100.00
29903;BME280;30288;50.514;9.678;2023-02-19T11:08:58;99200.19;;;11.15;100.00
29903;BME280;30288;50.514;9.678;2023-02-19T11:11:04;99209.22;;;11.23;100.00
29903;BME280;30288;50.514;9.678;2023-02-19T11:13:14;99208.97;;;11.35;100.00
29903;BME280;30288;50.514;9.678;2023-02-19T11:15:24;99197.94;;;11.39;100.00
29903;BME280;30288;50.514;9.678;2023-02-19T11:17:31;99201.94;;;11.47;100.00
29903;BME280;30288;50.514;9.678;2023-02-19T11:19:39;99195.94;;;11.52;100.00
29903;BME280;30288;50.514;9.678;2023-02-19T11:21:50;99207.06;;;11.44;100.00
29903;BME280;30288;50.514;9.678;2023-02-19T11:23:59;99210.75;;;11.30;100.00